Time;durP1;ratioP1;P1;durP2;ratioP2;P2;SDS_P1;SDS_P2;PMS_P1;PMS_P2;Temp;Humidity;BMP_temperature;BMP_pressure;BME280_temperature;BME280_humidity;BME280_pressure;Samples;Min_cycle;Max_cycle;Signal;HPM_P1;HPM_P2
2021/06/16 00:00:18;;;;;;;6.05;4.88;;;;;;;;;;5084385;28;20184;-83
2021/06/16 00:02:44;;;;;;;9.98;5.00;;;;;;;;;;5096787;28;20254;-85
2021/06/16 00:05:14;;;;;;;5.00;4.50;;;;;;;;;;5080181;28;20210;-84
2021/06/16 00:07:40;;;;;;;4.75;4.25;;;;;;;;;;5081287;28;20278;-85
2021/06/16 00:10:07;;;;;;;5.32;4.93;;;;;;;;;;5081580;28;20179;-84
2021/06/16 00:12:33;;;;;;;5.68;4.72;;;;;;;;;;5080498;28;20277;-84
2021/06/16 00:14:59;;;;;;;5.10;4.70;;;;;;;;;;5082383;28;20713;-85
2021/06/16 00:17:25;;;;;;;5.83;5.10;;;;;;;;;;5083619;28;20195;-84
2021/06/16 00:19:51;;;;;;;6.40;5.65;;;;;;;;;;5078759;28;20429;-84
2021/06/16 00:22:17;;;;;;;5.40;4.93;;;;;;;;;;5081549;28;20193;-85
2021/06/16 00:24:44;;;;;;;5.80;5.32;;;;;;;;;;5080290;28;20818;-84
2021/06/16 00:27:10;;;;;;;5.43;4.93;;;;;;;;;;5083168;28;20210;-85
2021/06/16 00:29:36;;;;;;;5.00;4.60;;;;;;;;;;5081916;28;20200;-85
2021/06/16 00:32:02;;;;;;;6.10;5.50;;;;;;;;;;5080023;28;20460;-85
2021/06/16 00:34:28;;;;;;;5.55;5.05;;;;;;;;;;5078314;28;20177;-85
2021/06/16 00:36:54;;;;;;;5.67;5.13;;;;;;;;;;5079549;28;20664;-84
2021/06/16 00:39:20;;;;;;;5.97;5.37;;;;;;;;;;5083109;28;20803;-84
2021/06/16 00:41:46;;;;;;;6.37;4.77;;;;;;;;;;5092591;28;20435;-85
2021/06/16 00:44:12;;;;;;;6.60;5.40;;;;;;;;;;5078244;28;20439;-85
2021/06/16 00:46:38;;;;;;;6.05;5.45;;;;;;;;;;5078748;28;20558;-84
2021/06/16 00:49:04;;;;;;;6.03;5.53;;;;;;;;;;5079981;28;20179;-85
2021/06/16 00:51:30;;;;;;;6.10;5.60;;;;;;;;;;5081258;28;20178;-83
2021/06/16 00:53:56;;;;;;;5.43;5.03;;;;;;;;;;5096979;28;20195;-85
2021/06/16 00:56:23;;;;;;;8.00;5.60;;;;;;;;;;5080011;28;20182;-84
2021/06/16 00:58:49;;;;;;;5.60;5.10;;;;;;;;;;5078521;28;20462;-85
2021/06/16 01:01:23;;;;;;;6.38;5.88;;;;;;;;;;5080059;28;20218;-85
2021/06/16 01:04:08;;;;;;;7.88;6.32;;;;;;;;;;5090523;28;20183;-85
2021/06/16 01:06:37;;;;;;;6.45;5.57;;;;;;;;;;5094549;28;20704;-84
2021/06/16 01:09:09;;;;;;;6.97;6.38;;;;;;;;;;5092534;28;20179;-85
2021/06/16 01:11:37;;;;;;;6.07;5.57;;;;;;;;;;5079238;28;20267;-85
2021/06/16 01:14:09;;;;;;;5.63;5.13;;;;;;;;;;5078483;28;20264;-84
2021/06/16 01:16:40;;;;;;;5.72;5.22;;;;;;;;;;5080015;28;20213;-84
2021/06/16 01:19:23;;;;;;;6.68;6.18;;;;;;;;;;5081173;28;20178;-84
2021/06/16 01:21:51;;;;;;;5.90;5.40;;;;;;;;;;5077242;28;20193;-84
2021/06/16 01:24:18;;;;;;;5.68;5.18;;;;;;;;;;5081588;28;20172;-83
2021/06/16 01:26:53;;;;;;;6.10;5.60;;;;;;;;;;5080765;28;20221;-85
2021/06/16 01:29:29;;;;;;;7.30;6.20;;;;;;;;;;5078466;28;20186;-85
2021/06/16 01:31:55;;;;;;;6.07;5.57;;;;;;;;;;5080550;28;20182;-85
2021/06/16 01:34:22;;;;;;;6.35;5.85;;;;;;;;;;5079113;28;20171;-84
2021/06/16 01:36:48;;;;;;;6.05;5.55;;;;;;;;;;5080874;28;20236;-84
2021/06/16 01:39:20;;;;;;;6.13;5.43;;;;;;;;;;5083582;28;20640;-84
2021/06/16 01:41:47;;;;;;;5.70;5.15;;;;;;;;;;5080337;28;20186;-85
2021/06/16 01:44:13;;;;;;;5.60;5.20;;;;;;;;;;5079250;28;20182;-85
2021/06/16 01:46:41;;;;;;;6.63;5.93;;;;;;;;;;5081332;28;20268;-83
2021/06/16 01:49:07;;;;;;;7.75;6.25;;;;;;;;;;5076867;28;20191;-85
2021/06/16 01:51:33;;;;;;;6.22;5.63;;;;;;;;;;5078802;28;20623;-84
2021/06/16 01:54:00;;;;;;;6.65;5.85;;;;;;;;;;5081425;28;20342;-85
2021/06/16 01:56:27;;;;;;;7.53;6.07;;;;;;;;;;5079003;28;20499;-85
2021/06/16 01:58:54;;;;;;;6.55;5.93;;;;;;;;;;5083471;28;20189;-85
2021/06/16 02:01:21;;;;;;;6.82;6.13;;;;;;;;;;5082948;28;20207;-84
2021/06/16 02:03:47;;;;;;;6.30;5.80;;;;;;;;;;5072904;28;20315;-84
2021/06/16 02:06:17;;;;;;;5.72;5.30;;;;;;;;;;5084598;28;20197;-84
2021/06/16 02:08:45;;;;;;;6.22;5.72;;;;;;;;;;5085673;28;20201;-85
2021/06/16 02:11:12;;;;;;;6.32;5.78;;;;;;;;;;5082333;28;20185;-85
2021/06/16 02:13:40;;;;;;;5.90;5.38;;;;;;;;;;5082268;28;20192;-86
2021/06/16 02:16:07;;;;;;;6.95;6.45;;;;;;;;;;5084849;28;20189;-85
2021/06/16 02:18:56;;;;;;;6.72;6.18;;;;;;;;;;5082757;28;20180;-84
2021/06/16 02:21:23;;;;;;;6.30;5.70;;;;;;;;;;5097276;28;20177;-85
2021/06/16 02:23:49;;;;;;;5.80;5.28;;;;;;;;;;5085668;28;20169;-84
2021/06/16 02:26:15;;;;;;;6.38;5.78;;;;;;;;;;5081210;28;20205;-84
2021/06/16 02:28:42;;;;;;;7.05;5.63;;;;;;;;;;5083404;28;20177;-86
2021/06/16 02:31:08;;;;;;;6.60;6.05;;;;;;;;;;5082688;28;20196;-85
2021/06/16 02:33:34;;;;;;;6.82;6.15;;;;;;;;;;5084443;28;20203;-84
2021/06/16 02:36:00;;;;;;;6.97;6.30;;;;;;;;;;5097309;28;20379;-84
2021/06/16 02:38:29;;;;;;;7.53;6.75;;;;;;;;;;5083199;28;20181;-85
2021/06/16 02:40:55;;;;;;;6.32;5.82;;;;;;;;;;5081062;28;20184;-86
2021/06/16 02:43:22;;;;;;;6.93;6.32;;;;;;;;;;5080832;28;20192;-85
2021/06/16 02:45:48;;;;;;;6.75;6.15;;;;;;;;;;5096018;28;20212;-85
2021/06/16 02:48:15;;;;;;;6.75;6.05;;;;;;;;;;5084352;28;20225;-86
2021/06/16 02:50:44;;;;;;;7.13;6.53;;;;;;;;;;5064329;28;20200;-85
2021/06/16 02:53:14;;;;;;;6.30;5.80;;;;;;;;;;5081482;28;20202;-85
2021/06/16 02:55:40;;;;;;;7.35;6.25;;;;;;;;;;5080554;28;20180;-85
2021/06/16 02:58:07;;;;;;;10.07;6.88;;;;;;;;;;5088797;28;20493;-85
2021/06/16 03:00:33;;;;;;;7.32;6.63;;;;;;;;;;5082348;28;20172;-85
2021/06/16 03:03:00;;;;;;;7.57;6.53;;;;;;;;;;5095338;28;20267;-85
2021/06/16 03:05:27;;;;;;;8.75;6.03;;;;;;;;;;5081625;28;20185;-84
2021/06/16 03:07:55;;;;;;;8.38;6.88;;;;;;;;;;5080409;28;20276;-84
2021/06/16 03:10:22;;;;;;;6.55;5.95;;;;;;;;;;5079980;28;20216;-83
2021/06/16 03:12:51;;;;;;;6.70;6.15;;;;;;;;;;5081052;28;20202;-83
2021/06/16 03:15:18;;;;;;;6.45;5.93;;;;;;;;;;5085162;28;20169;-84
2021/06/16 03:17:45;;;;;;;7.15;6.55;;;;;;;;;;5091986;28;20189;-84
2021/06/16 03:20:12;;;;;;;6.53;5.95;;;;;;;;;;5081095;28;20181;-84
2021/06/16 03:22:38;;;;;;;7.82;6.80;;;;;;;;;;5081373;28;20185;-84
2021/06/16 03:25:05;;;;;;;7.60;6.05;;;;;;;;;;5081873;28;20188;-84
2021/06/16 03:27:32;;;;;;;9.02;7.10;;;;;;;;;;5081672;28;20206;-83
2021/06/16 03:29:58;;;;;;;7.10;6.50;;;;;;;;;;5083339;28;20255;-85
2021/06/16 03:32:24;;;;;;;7.83;7.13;;;;;;;;;;5078479;28;20180;-85
2021/06/16 03:34:50;;;;;;;7.82;7.00;;;;;;;;;;5080073;28;20431;-85
2021/06/16 03:37:17;;;;;;;7.97;7.22;;;;;;;;;;5082768;28;20185;-85
2021/06/16 03:39:44;;;;;;;9.88;7.15;;;;;;;;;;5080713;28;20181;-84
2021/06/16 03:42:11;;;;;;;7.68;6.90;;;;;;;;;;5094798;28;20204;-84
2021/06/16 03:44:37;;;;;;;7.15;6.55;;;;;;;;;;5082109;28;20218;-83
2021/06/16 03:47:03;;;;;;;7.20;6.60;;;;;;;;;;5079220;28;20216;-84
2021/06/16 03:49:30;;;;;;;7.35;6.75;;;;;;;;;;5078957;28;21114;-84
2021/06/16 03:51:57;;;;;;;7.32;6.35;;;;;;;;;;5080105;28;20221;-84
2021/06/16 03:54:25;;;;;;;6.78;6.22;;;;;;;;;;5081058;28;20168;-83
2021/06/16 03:56:51;;;;;;;8.40;7.25;;;;;;;;;;5083041;28;20177;-83
2021/06/16 03:59:17;;;;;;;7.18;6.53;;;;;;;;;;5079374;28;20223;-84
2021/06/16 04:01:44;;;;;;;7.70;7.00;;;;;;;;;;5079072;28;20256;-84
2021/06/16 04:04:10;;;;;;;7.65;6.95;;;;;;;;;;5081317;28;20211;-85
2021/06/16 04:06:37;;;;;;;8.10;7.40;;;;;;;;;;5082029;28;20224;-84
2021/06/16 04:09:04;;;;;;;8.00;7.20;;;;;;;;;;5083208;28;20206;-84
2021/06/16 04:11:31;;;;;;;7.20;6.60;;;;;;;;;;5079890;28;20413;-85
2021/06/16 04:13:58;;;;;;;8.63;6.90;;;;;;;;;;5081468;28;20208;-84
2021/06/16 04:16:28;;;;;;;7.45;6.82;;;;;;;;;;5081890;28;20220;-84
2021/06/16 04:18:54;;;;;;;7.75;6.93;;;;;;;;;;5080011;28;20658;-84
2021/06/16 04:21:21;;;;;;;7.70;6.97;;;;;;;;;;5081103;28;20192;-84
2021/06/16 04:23:47;;;;;;;7.15;6.55;;;;;;;;;;5091678;28;20180;-84
2021/06/16 04:26:14;;;;;;;7.63;6.28;;;;;;;;;;5079956;28;20224;-84
2021/06/16 04:28:40;;;;;;;8.82;7.05;;;;;;;;;;5081077;28;20680;-84
2021/06/16 04:31:06;;;;;;;6.77;6.17;;;;;;;;;;5081263;28;20172;-84
2021/06/16 04:33:32;;;;;;;8.80;7.90;;;;;;;;;;5081324;28;20414;-84
2021/06/16 04:35:58;;;;;;;7.80;7.03;;;;;;;;;;5092739;28;20428;-84
2021/06/16 04:38:24;;;;;;;8.02;7.32;;;;;;;;;;5080390;28;20212;-84
2021/06/16 04:40:51;;;;;;;7.78;7.03;;;;;;;;;;5081574;28;20184;-84
2021/06/16 04:43:16;;;;;;;7.65;7.05;;;;;;;;;;5078777;28;20527;-84
2021/06/16 04:45:42;;;;;;;8.17;7.37;;;;;;;;;;5079848;28;20208;-84
2021/06/16 04:48:08;;;;;;;9.10;8.20;;;;;;;;;;5098916;28;20459;-82
2021/06/16 04:50:34;;;;;;;8.07;7.37;;;;;;;;;;5080962;28;20443;-83
2021/06/16 04:53:00;;;;;;;7.95;7.25;;;;;;;;;;5078798;28;20427;-82
2021/06/16 04:55:26;;;;;;;8.55;7.85;;;;;;;;;;5078209;28;20184;-83
2021/06/16 04:57:52;;;;;;;7.83;6.57;;;;;;;;;;5080691;28;20186;-82
2021/06/16 05:00:19;;;;;;;7.87;7.07;;;;;;;;;;5081259;28;20430;-82
2021/06/16 05:02:45;;;;;;;8.98;8.15;;;;;;;;;;5080759;28;20419;-82
2021/06/16 05:05:11;;;;;;;7.93;7.22;;;;;;;;;;5078415;28;20169;-82
2021/06/16 05:07:37;;;;;;;8.48;7.70;;;;;;;;;;5076525;28;20236;-83
2021/06/16 05:10:04;;;;;;;8.98;8.18;;;;;;;;;;5078029;28;20325;-82
2021/06/16 05:12:30;;;;;;;10.10;8.30;;;;;;;;;;5078209;28;20183;-82
2021/06/16 05:14:56;;;;;;;8.70;7.90;;;;;;;;;;5079589;28;20172;-82
2021/06/16 05:17:22;;;;;;;8.50;7.80;;;;;;;;;;5077211;28;20423;-83
2021/06/16 05:19:55;;;;;;;8.05;7.35;;;;;;;;;;5078763;28;20196;-82
2021/06/16 05:22:21;;;;;;;9.90;7.45;;;;;;;;;;5075247;28;21551;-82
2021/06/16 05:24:47;;;;;;;8.77;7.87;;;;;;;;;;5077184;28;20275;-82
2021/06/16 05:27:15;;;;;;;10.35;9.40;;;;;;;;;;5078725;28;20479;-83
2021/06/16 05:29:41;;;;;;;8.65;7.82;;;;;;;;;;5079552;28;20654;-81
2021/06/16 05:32:07;;;;;;;9.43;8.57;;;;;;;;;;5078339;28;20553;-84
2021/06/16 05:34:33;;;;;;;9.27;8.38;;;;;;;;;;5085055;28;20181;-83
2021/06/16 05:37:00;;;;;;;9.47;8.57;;;;;;;;;;5079851;28;20254;-83
2021/06/16 05:39:26;;;;;;;8.60;7.78;;;;;;;;;;5080406;28;20437;-83
2021/06/16 05:41:52;;;;;;;9.47;8.73;;;;;;;;;;5085335;28;20213;-83
2021/06/16 05:44:18;;;;;;;9.25;7.90;;;;;;;;;;5082790;28;20443;-83
2021/06/16 05:46:44;;;;;;;10.20;9.17;;;;;;;;;;5096361;28;20230;-83
2021/06/16 05:49:10;;;;;;;11.88;9.15;;;;;;;;;;5072993;28;20434;-82
2021/06/16 05:51:36;;;;;;;8.73;7.80;;;;;;;;;;5084140;28;20198;-79
2021/06/16 05:54:03;;;;;;;10.02;9.10;;;;;;;;;;5096399;28;20550;-79
2021/06/16 05:56:29;;;;;;;9.60;8.70;;;;;;;;;;5079106;28;20190;-79
2021/06/16 05:58:55;;;;;;;9.20;8.40;;;;;;;;;;5084954;28;20179;-81
2021/06/16 06:01:21;;;;;;;9.45;8.65;;;;;;;;;;5081433;28;20434;-78
2021/06/16 06:03:46;;;;;;;9.90;8.90;;;;;;;;;;5083571;28;20198;-79
2021/06/16 06:06:12;;;;;;;10.53;9.47;;;;;;;;;;5098418;28;20456;-79
2021/06/16 06:08:38;;;;;;;12.93;10.13;;;;;;;;;;5080233;28;20414;-79
2021/06/16 06:11:04;;;;;;;9.30;8.43;;;;;;;;;;5083614;28;20405;-79
2021/06/16 06:13:30;;;;;;;9.03;8.13;;;;;;;;;;5082231;28;20441;-80
2021/06/16 06:15:56;;;;;;;9.77;8.77;;;;;;;;;;5076898;28;20933;-78
2021/06/16 06:18:22;;;;;;;10.07;9.20;;;;;;;;;;5080506;28;20427;-79
2021/06/16 06:20:48;;;;;;;9.10;8.30;;;;;;;;;;5083180;28;20427;-78
2021/06/16 06:23:14;;;;;;;9.43;8.53;;;;;;;;;;5083268;28;20437;-78
2021/06/16 06:25:40;;;;;;;11.73;9.13;;;;;;;;;;5080660;28;20492;-78
2021/06/16 06:28:07;;;;;;;10.40;9.30;;;;;;;;;;5079298;28;20238;-81
2021/06/16 06:30:33;;;;;;;10.30;8.77;;;;;;;;;;5071596;28;20183;-78
2021/06/16 06:32:59;;;;;;;11.00;8.57;;;;;;;;;;5081958;28;20423;-79
2021/06/16 06:35:25;;;;;;;10.47;9.10;;;;;;;;;;5078978;28;20416;-79
2021/06/16 06:37:51;;;;;;;11.10;9.00;;;;;;;;;;5086519;28;20488;-80
2021/06/16 06:40:17;;;;;;;9.33;8.50;;;;;;;;;;5085181;28;20430;-82
2021/06/16 06:42:43;;;;;;;15.40;11.07;;;;;;;;;;5072434;28;20435;-82
2021/06/16 06:45:09;;;;;;;10.20;9.03;;;;;;;;;;5100450;28;20859;-81
2021/06/16 06:47:35;;;;;;;10.53;9.43;;;;;;;;;;5082764;28;20447;-82
2021/06/16 06:50:01;;;;;;;10.80;9.80;;;;;;;;;;5075084;28;20406;-82
2021/06/16 06:52:27;;;;;;;10.67;9.57;;;;;;;;;;5079200;28;20417;-83
2021/06/16 06:54:53;;;;;;;10.13;9.10;;;;;;;;;;5074474;28;20495;-84
2021/06/16 06:57:19;;;;;;;9.80;8.90;;;;;;;;;;5084500;28;20427;-82
2021/06/16 06:59:45;;;;;;;11.40;8.90;;;;;;;;;;5078537;28;20453;-81
2021/06/16 07:02:11;;;;;;;9.60;8.70;;;;;;;;;;5081971;28;20443;-81
2021/06/16 07:04:37;;;;;;;10.53;9.67;;;;;;;;;;5081037;28;20496;-83
2021/06/16 07:07:03;;;;;;;9.50;8.60;;;;;;;;;;5080752;28;20523;-83
2021/06/16 07:09:29;;;;;;;9.30;8.60;;;;;;;;;;5076130;28;20433;-81
2021/06/16 07:11:55;;;;;;;11.77;8.27;;;;;;;;;;5079283;28;20422;-80
2021/06/16 07:14:21;;;;;;;9.53;8.63;;;;;;;;;;5074721;28;20430;-80
2021/06/16 07:16:47;;;;;;;10.73;9.60;;;;;;;;;;5079670;28;20917;-81
2021/06/16 07:19:13;;;;;;;9.90;8.97;;;;;;;;;;5080283;28;20416;-82
2021/06/16 07:21:39;;;;;;;9.77;8.57;;;;;;;;;;5081300;28;20521;-83
2021/06/16 07:24:05;;;;;;;9.30;8.40;;;;;;;;;;5093617;28;20402;-82
2021/06/16 07:26:31;;;;;;;10.87;9.53;;;;;;;;;;5081003;28;20440;-82
2021/06/16 07:28:57;;;;;;;9.60;8.60;;;;;;;;;;5082073;28;20430;-81
2021/06/16 07:31:23;;;;;;;10.43;7.97;;;;;;;;;;5082517;28;20481;-81
2021/06/16 07:33:49;;;;;;;8.40;7.60;;;;;;;;;;5080374;28;20431;-82
2021/06/16 07:36:15;;;;;;;8.70;8.00;;;;;;;;;;5083774;28;20407;-82
2021/06/16 07:38:41;;;;;;;11.10;7.27;;;;;;;;;;5079543;28;20435;-82
2021/06/16 07:41:07;;;;;;;11.13;7.50;;;;;;;;;;5080999;28;20461;-81
2021/06/16 07:43:33;;;;;;;8.30;7.60;;;;;;;;;;5080621;28;20486;-82
2021/06/16 07:45:59;;;;;;;8.30;6.97;;;;;;;;;;5080846;28;20473;-80
2021/06/16 07:48:25;;;;;;;10.00;5.90;;;;;;;;;;5083535;28;20982;-82
2021/06/16 07:50:51;;;;;;;6.80;6.20;;;;;;;;;;5082209;28;20430;-82
2021/06/16 07:53:17;;;;;;;8.10;7.03;;;;;;;;;;5078872;28;20412;-83
2021/06/16 07:55:43;;;;;;;6.53;5.87;;;;;;;;;;5079012;28;20496;-82
2021/06/16 07:58:10;;;;;;;6.83;6.20;;;;;;;;;;5081023;28;20905;-82
2021/06/16 08:00:36;;;;;;;6.80;6.23;;;;;;;;;;5081253;28;20471;-81
2021/06/16 08:03:02;;;;;;;7.23;6.43;;;;;;;;;;5094927;28;20399;-82
2021/06/16 08:05:28;;;;;;;6.20;5.67;;;;;;;;;;5080043;28;20402;-82
2021/06/16 08:07:54;;;;;;;6.13;5.63;;;;;;;;;;5078782;28;20459;-82
2021/06/16 08:10:20;;;;;;;6.53;6.03;;;;;;;;;;5080265;28;20876;-81
2021/06/16 08:12:46;;;;;;;5.90;5.20;;;;;;;;;;5079932;28;20479;-81
2021/06/16 08:15:13;;;;;;;4.00;3.70;;;;;;;;;;5083905;28;20383;-78
2021/06/16 08:17:39;;;;;;;4.83;4.00;;;;;;;;;;5079239;28;20417;-80
2021/06/16 08:20:06;;;;;;;4.97;4.37;;;;;;;;;;5080902;28;20514;-81
2021/06/16 08:22:33;;;;;;;4.10;3.80;;;;;;;;;;5079575;28;20445;-80
2021/06/16 08:25:00;;;;;;;4.97;4.57;;;;;;;;;;5079798;28;20413;-81
2021/06/16 08:27:27;;;;;;;9.90;4.73;;;;;;;;;;5081279;28;20436;-81
2021/06/16 08:29:53;;;;;;;4.80;4.30;;;;;;;;;;5082534;28;20421;-80
2021/06/16 08:32:19;;;;;;;4.57;3.70;;;;;;;;;;5080433;28;20542;-80
2021/06/16 08:34:45;;;;;;;4.07;3.73;;;;;;;;;;5080355;28;20537;-80
2021/06/16 08:37:11;;;;;;;8.13;3.90;;;;;;;;;;5079530;28;20926;-80
2021/06/16 08:39:38;;;;;;;4.80;4.03;;;;;;;;;;5080534;28;20474;-80
2021/06/16 08:42:04;;;;;;;4.47;4.07;;;;;;;;;;5092714;28;20433;-81
2021/06/16 08:44:31;;;;;;;4.13;3.83;;;;;;;;;;5079513;28;20408;-79
2021/06/16 08:46:57;;;;;;;5.00;4.60;;;;;;;;;;5079175;28;20470;-80
2021/06/16 08:49:23;;;;;;;7.63;4.73;;;;;;;;;;5081807;28;20503;-81
2021/06/16 08:51:49;;;;;;;5.50;3.53;;;;;;;;;;5078963;28;20445;-80
2021/06/16 08:54:15;;;;;;;4.67;4.27;;;;;;;;;;5082385;28;20563;-80
2021/06/16 08:56:41;;;;;;;4.50;3.83;;;;;;;;;;5079671;28;20449;-79
2021/06/16 08:59:07;;;;;;;6.23;3.80;;;;;;;;;;5078805;28;20569;-80
2021/06/16 09:01:33;;;;;;;4.40;4.10;;;;;;;;;;5079257;28;20430;-80
2021/06/16 09:03:59;;;;;;;4.07;3.77;;;;;;;;;;5079829;28;20529;-80
2021/06/16 09:06:29;;;;;;;4.30;4.00;;;;;;;;;;5083420;28;20635;-81
2021/06/16 09:08:57;;;;;;;5.77;4.20;;;;;;;;;;5086572;28;20442;-81
2021/06/16 09:11:24;;;;;;;4.57;3.77;;;;;;;;;;5082770;28;20464;-81
2021/06/16 09:13:50;;;;;;;4.10;3.80;;;;;;;;;;5083734;28;20706;-80
2021/06/16 09:16:29;;;;;;;4.37;4.03;;;;;;;;;;5084319;28;20437;-80
2021/06/16 09:18:56;;;;;;;4.20;3.90;;;;;;;;;;5080094;28;20450;-79
2021/06/16 09:21:36;;;;;;;3.87;3.57;;;;;;;;;;5084619;28;20427;-80
2021/06/16 09:24:03;;;;;;;3.80;3.57;;;;;;;;;;5084612;28;20440;-80
2021/06/16 09:26:30;;;;;;;4.30;3.90;;;;;;;;;;5078331;28;20467;-80
2021/06/16 09:28:57;;;;;;;4.00;3.70;;;;;;;;;;5080120;28;20442;-81
2021/06/16 09:31:23;;;;;;;4.00;3.60;;;;;;;;;;5074309;28;20442;-80
2021/06/16 09:33:51;;;;;;;3.50;3.30;;;;;;;;;;5076921;28;20432;-80
2021/06/16 09:36:18;;;;;;;4.07;3.77;;;;;;;;;;5083760;28;20428;-79
2021/06/16 09:38:46;;;;;;;3.83;3.53;;;;;;;;;;5083552;28;20419;-81
2021/06/16 09:41:13;;;;;;;4.83;3.67;;;;;;;;;;5082777;28;20444;-80
2021/06/16 09:43:39;;;;;;;3.53;3.10;;;;;;;;;;5083412;28;20434;-82
2021/06/16 09:46:07;;;;;;;4.03;3.37;;;;;;;;;;5083921;28;20514;-80
2021/06/16 09:48:34;;;;;;;3.90;3.60;;;;;;;;;;5082621;28;20470;-82
2021/06/16 09:51:17;;;;;;;4.30;4.00;;;;;;;;;;5086652;28;20420;-83
2021/06/16 09:53:53;;;;;;;3.70;3.40;;;;;;;;;;5097401;28;20435;-82
2021/06/16 09:56:19;;;;;;;4.20;3.90;;;;;;;;;;5084067;28;20438;-79
2021/06/16 09:58:45;;;;;;;2.93;2.70;;;;;;;;;;5081212;28;21163;-81
2021/06/16 10:01:11;;;;;;;3.83;3.50;;;;;;;;;;5085780;28;20497;-78
2021/06/16 10:03:37;;;;;;;4.00;3.60;;;;;;;;;;5081934;28;20418;-80
2021/06/16 10:06:14;;;;;;;4.70;4.30;;;;;;;;;;5085442;28;20440;-81
2021/06/16 10:08:43;;;;;;;4.80;4.37;;;;;;;;;;5077429;28;20436;-79
2021/06/16 10:11:10;;;;;;;3.53;3.23;;;;;;;;;;5081582;28;20433;-80
2021/06/16 10:13:37;;;;;;;4.27;3.80;;;;;;;;;;5083836;28;20796;-80
2021/06/16 10:16:03;;;;;;;4.77;3.50;;;;;;;;;;5092074;28;20441;-80
2021/06/16 10:18:30;;;;;;;3.83;3.30;;;;;;;;;;5082422;28;20409;-82
2021/06/16 10:20:57;;;;;;;3.50;3.20;;;;;;;;;;5083940;28;20422;-81
2021/06/16 10:23:23;;;;;;;4.03;3.63;;;;;;;;;;5082500;28;20464;-82
2021/06/16 10:25:50;;;;;;;3.67;3.37;;;;;;;;;;5080800;28;20437;-81
2021/06/16 10:28:17;;;;;;;3.30;3.03;;;;;;;;;;5082365;28;20516;-83
2021/06/16 10:30:44;;;;;;;3.67;3.37;;;;;;;;;;5082660;28;20950;-82
2021/06/16 10:33:29;;;;;;;3.97;3.57;;;;;;;;;;5084549;28;20414;-82
2021/06/16 10:36:14;;;;;;;4.10;3.77;;;;;;;;;;5096695;28;20417;-81
2021/06/16 10:38:41;;;;;;;3.90;3.60;;;;;;;;;;5083356;28;20438;-82
2021/06/16 10:41:08;;;;;;;3.50;3.30;;;;;;;;;;5083044;28;20449;-83
2021/06/16 10:43:38;;;;;;;3.50;3.20;;;;;;;;;;5080876;28;20441;-83
2021/06/16 10:46:08;;;;;;;4.47;4.07;;;;;;;;;;5081177;28;20541;-83
2021/06/16 10:48:55;;;;;;;3.93;3.50;;;;;;;;;;5082353;28;20455;-83
2021/06/16 10:51:26;;;;;;;4.07;3.77;;;;;;;;;;5097222;28;20430;-81
2021/06/16 10:54:10;;;;;;;4.77;3.57;;;;;;;;;;5083776;28;20413;-81
2021/06/16 10:56:42;;;;;;;3.67;3.37;;;;;;;;;;5080150;28;20451;-82
2021/06/16 10:59:08;;;;;;;3.50;3.10;;;;;;;;;;5092555;28;20442;-81
2021/06/16 11:01:48;;;;;;;3.30;3.10;;;;;;;;;;5080542;28;20457;-81
2021/06/16 11:04:27;;;;;;;3.43;3.23;;;;;;;;;;5071469;28;20438;-83
2021/06/16 11:06:53;;;;;;;3.50;3.30;;;;;;;;;;5077380;28;20474;-80
2021/06/16 11:09:19;;;;;;;3.87;3.47;;;;;;;;;;5083865;28;20422;-82
2021/06/16 11:11:51;;;;;;;3.27;3.03;;;;;;;;;;5083643;28;20790;-80
2021/06/16 11:14:36;;;;;;;3.20;2.77;;;;;;;;;;5083188;28;20430;-82
2021/06/16 11:17:03;;;;;;;5.23;3.50;;;;;;;;;;5080921;28;20440;-80
2021/06/16 11:19:35;;;;;;;4.00;3.67;;;;;;;;;;5080728;28;20513;-81
2021/06/16 11:22:04;;;;;;;3.60;3.30;;;;;;;;;;5080553;28;20455;-81
2021/06/16 11:24:48;;;;;;;3.67;3.37;;;;;;;;;;5084041;28;20903;-82
2021/06/16 11:27:34;;;;;;;4.70;3.50;;;;;;;;;;5085305;28;20539;-80
2021/06/16 11:30:01;;;;;;;3.93;3.00;;;;;;;;;;5081782;28;20418;-83
2021/06/16 11:32:27;;;;;;;4.73;4.00;;;;;;;;;;5081389;28;20426;-82
2021/06/16 11:34:54;;;;;;;3.37;3.07;;;;;;;;;;5080059;28;20439;-79
2021/06/16 11:37:39;;;;;;;3.63;3.30;;;;;;;;;;5083085;28;20962;-81
2021/06/16 11:40:05;;;;;;;3.40;3.20;;;;;;;;;;5078594;28;20470;-81
2021/06/16 11:42:31;;;;;;;4.07;3.87;;;;;;;;;;5083453;28;20507;-80
2021/06/16 11:44:58;;;;;;;3.40;3.20;;;;;;;;;;5082374;28;20419;-81
2021/06/16 11:47:25;;;;;;;3.03;2.83;;;;;;;;;;5078985;28;20462;-80
2021/06/16 11:49:58;;;;;;;3.60;2.70;;;;;;;;;;5081006;28;20430;-81
2021/06/16 11:52:24;;;;;;;3.20;2.90;;;;;;;;;;5082298;28;20510;-81
2021/06/16 11:54:50;;;;;;;3.13;2.93;;;;;;;;;;5080875;28;20537;-81
2021/06/16 11:57:18;;;;;;;3.20;3.00;;;;;;;;;;5083122;28;20434;-78
2021/06/16 11:59:49;;;;;;;4.00;3.27;;;;;;;;;;5079785;28;20687;-81
2021/06/16 12:02:23;;;;;;;3.40;3.10;;;;;;;;;;5080677;28;20434;-83
2021/06/16 12:05:10;;;;;;;3.13;2.90;;;;;;;;;;5080684;28;20509;-82
2021/06/16 12:07:42;;;;;;;3.83;3.43;;;;;;;;;;5081588;28;20469;-80
2021/06/16 12:10:08;;;;;;;5.70;4.20;;;;;;;;;;5082077;28;20445;-81
2021/06/16 12:12:46;;;;;;;3.07;2.87;;;;;;;;;;5082372;28;20411;-84
2021/06/16 12:15:13;;;;;;;3.20;3.00;;;;;;;;;;5083626;28;20409;-82
2021/06/16 12:17:59;;;;;;;2.60;2.40;;;;;;;;;;5080152;28;20462;-78
2021/06/16 12:20:26;;;;;;;2.60;2.50;;;;;;;;;;5080137;28;20449;-81
2021/06/16 12:22:52;;;;;;;2.57;2.47;;;;;;;;;;5079370;28;20446;-82
2021/06/16 12:25:23;;;;;;;3.10;2.90;;;;;;;;;;5081253;28;20453;-81
2021/06/16 12:27:49;;;;;;;3.70;2.70;;;;;;;;;;5090040;28;20470;-81
2021/06/16 12:30:19;;;;;;;3.00;2.80;;;;;;;;;;5084332;28;20414;-81
2021/06/16 12:33:11;;;;;;;2.97;2.87;;;;;;;;;;5081394;28;20868;-83
2021/06/16 12:35:45;;;;;;;2.57;2.47;;;;;;;;;;5080590;28;20437;-79
2021/06/16 12:38:11;;;;;;;2.13;2.03;;;;;;;;;;5078363;28;20434;-79
2021/06/16 12:40:39;;;;;;;3.80;2.87;;;;;;;;;;5073813;28;20449;-78
2021/06/16 12:43:06;;;;;;;2.73;2.53;;;;;;;;;;5080339;28;20452;-82
2021/06/16 12:45:40;;;;;;;3.17;2.90;;;;;;;;;;5079042;28;20423;-78
2021/06/16 12:48:12;;;;;;;3.10;2.90;;;;;;;;;;5079304;28;20494;-82
2021/06/16 12:50:38;;;;;;;3.30;3.10;;;;;;;;;;5074325;28;20438;-83
2021/06/16 12:53:11;;;;;;;3.27;2.90;;;;;;;;;;5078099;28;20781;-82
2021/06/16 12:55:42;;;;;;;2.63;2.53;;;;;;;;;;5078586;28;20436;-83
2021/06/16 12:58:08;;;;;;;3.07;2.97;;;;;;;;;;5077898;28;20427;-84
2021/06/16 13:00:34;;;;;;;3.50;3.30;;;;;;;;;;5081765;28;20410;-85
2021/06/16 13:03:10;;;;;;;3.80;3.50;;;;;;;;;;5084458;28;20407;-84
2021/06/16 13:05:37;;;;;;;3.20;3.00;;;;;;;;;;5077776;28;20924;-84
2021/06/16 13:08:03;;;;;;;4.10;3.70;;;;;;;;;;5078127;28;20462;-84
2021/06/16 13:10:37;;;;;;;3.43;3.20;;;;;;;;;;5078483;28;20569;-81
2021/06/16 13:13:03;;;;;;;3.70;3.50;;;;;;;;;;5079401;28;20431;-83
2021/06/16 13:15:38;;;;;;;3.77;3.57;;;;;;;;;;5080924;28;20411;-79
2021/06/16 13:18:08;;;;;;;3.27;3.07;;;;;;;;;;5082296;28;20462;-85
2021/06/16 13:20:35;;;;;;;2.80;2.60;;;;;;;;;;5079760;28;20438;-85
2021/06/16 13:23:15;;;;;;;2.83;2.73;;;;;;;;;;5078716;28;20472;-82
2021/06/16 13:25:42;;;;;;;2.73;2.63;;;;;;;;;;5080860;28;20820;-81
2021/06/16 13:28:08;;;;;;;2.43;2.23;;;;;;;;;;5079488;28;20455;-82
2021/06/16 13:30:38;;;;;;;2.57;2.33;;;;;;;;;;5081784;28;20411;-85
2021/06/16 13:33:05;;;;;;;2.77;2.50;;;;;;;;;;5092429;28;20410;-83
2021/06/16 13:35:31;;;;;;;3.10;2.37;;;;;;;;;;5079669;28;20434;-83
2021/06/16 13:37:58;;;;;;;2.40;2.30;;;;;;;;;;5079666;28;20529;-83
2021/06/16 13:40:24;;;;;;;2.30;2.10;;;;;;;;;;5079286;28;20437;-84
2021/06/16 13:42:51;;;;;;;2.30;2.20;;;;;;;;;;5079716;28;20548;-81
2021/06/16 13:45:18;;;;;;;2.90;2.70;;;;;;;;;;5082792;28;20432;-83
2021/06/16 13:47:44;;;;;;;2.60;2.40;;;;;;;;;;5079356;28;20474;-82
2021/06/16 13:50:11;;;;;;;4.33;2.43;;;;;;;;;;5078717;28;20456;-81
2021/06/16 13:52:37;;;;;;;2.40;2.30;;;;;;;;;;5078791;28;20449;-82
2021/06/16 13:55:03;;;;;;;2.93;2.73;;;;;;;;;;5082656;28;20431;-84
2021/06/16 13:57:29;;;;;;;2.90;2.70;;;;;;;;;;5083739;28;20793;-83
2021/06/16 13:59:55;;;;;;;2.53;2.37;;;;;;;;;;5085189;28;20430;-85
2021/06/16 14:02:21;;;;;;;3.03;2.10;;;;;;;;;;5082822;28;20435;-82
2021/06/16 14:04:47;;;;;;;2.67;2.50;;;;;;;;;;5080395;28;20459;-83
2021/06/16 14:07:13;;;;;;;3.57;2.30;;;;;;;;;;5077672;28;20486;-78
2021/06/16 14:09:40;;;;;;;2.60;2.43;;;;;;;;;;5081799;28;20541;-78
2021/06/16 14:12:06;;;;;;;2.43;2.33;;;;;;;;;;5101350;28;20501;-77
2021/06/16 14:14:32;;;;;;;3.60;2.30;;;;;;;;;;5081466;28;20446;-78
2021/06/16 14:16:58;;;;;;;4.50;2.60;;;;;;;;;;5074910;28;20440;-78
2021/06/16 14:19:24;;;;;;;2.90;2.33;;;;;;;;;;5082520;28;20434;-78
2021/06/16 14:21:50;;;;;;;2.60;2.40;;;;;;;;;;5089697;28;20438;-79
2021/06/16 14:24:17;;;;;;;2.63;2.43;;;;;;;;;;5083390;28;20498;-80
2021/06/16 14:26:43;;;;;;;2.50;2.30;;;;;;;;;;5082743;28;20454;-79
2021/06/16 14:29:09;;;;;;;2.50;2.10;;;;;;;;;;5079929;28;20578;-78
2021/06/16 14:31:37;;;;;;;2.80;2.60;;;;;;;;;;5078479;28;20449;-79
2021/06/16 14:34:03;;;;;;;4.93;2.77;;;;;;;;;;5079490;28;20438;-81
2021/06/16 14:36:29;;;;;;;2.47;2.27;;;;;;;;;;5094202;28;20431;-80
2021/06/16 14:38:55;;;;;;;2.90;2.40;;;;;;;;;;5078517;28;20445;-77
2021/06/16 14:41:21;;;;;;;2.90;2.57;;;;;;;;;;5077542;28;21027;-80
2021/06/16 14:43:47;;;;;;;2.00;1.90;;;;;;;;;;5076919;28;20435;-79